Flight Track Log - Related Links

Times and Time Zones

All times are in EDT time to prevent confusion due to time zone crossing. See the CSN6874 flight status page for this flight to view local times or setup timezone preferences in your user account.

Time Position Orientation Groundspeed Altitude Reporting Facility
EDT Latitude Longitude Course Direction KTS MPH feet Rate Location/Type
Fri 10:03:00 PM 41.8211 83.1838 55° Northeast  Level Estimated
Fri 10:04:00 PM 41.9239 83.3813 55° Northeast  Level Estimated
Fri 10:05:00 PM 42.0263 83.5795 55° Northeast  Level Estimated
Fri 10:06:00 PM 42.1283 83.7783 55° Northeast  Level Estimated
Fri 10:07:00 PM 42.2301 83.9777 55° Northeast  Level Estimated
Fri 10:08:00 PM 42.3314 84.1778 56° Northeast  Level Estimated
Fri 10:09:00 PM 42.4324 84.3785 56° Northeast  Level Estimated
Fri 10:10:00 PM 42.5331 84.5798 56° Northeast  Level Estimated
Fri 10:11:00 PM 42.6334 84.7819 56° Northeast  Level Estimated
Fri 10:12:00 PM 42.7334 84.9845 56° Northeast  Level Estimated
Fri 10:13:00 PM 42.8330 85.1878 56° Northeast  Level Estimated
Fri 10:14:00 PM 42.9322 85.3918 56° Northeast  Level Estimated
Fri 10:15:00 PM 43.0311 85.5964 56° Northeast  Level Estimated
Fri 10:16:00 PM 43.1296 85.8017 57° Northeast  Level Estimated
Fri 10:17:00 PM 43.2278 86.0077 57° Northeast  Level Estimated
Fri 10:18:00 PM 43.3255 86.2143 57° Northeast  Level Estimated
Fri 10:19:00 PM 43.4229 86.4215 57° Northeast  Level Estimated
Fri 10:20:00 PM 43.5200 86.6295 57° Northeast  Level Estimated
Fri 10:21:00 PM 43.6166 86.8381 57° Northeast  Level Estimated
Fri 10:22:00 PM 43.7129 87.0474 57° Northeast  Level Estimated
Fri 10:23:00 PM 43.8088 87.2573 58° Northeast  Level Estimated
Fri 10:24:00 PM 43.9043 87.4680 58° Northeast  Level Estimated
Fri 10:25:00 PM 43.9071 87.4742 58° Northeast  Level Estimated
Fri 10:26:00 PM 43.9071 87.4742 144° Southeast  Level Estimated
Fri 10:27:00 PM 43.9071 87.4742 144° Southeast  Level Estimated
Fri 10:28:00 PM 43.9071 87.4742 144° Southeast  Level Estimated
Fri 10:29:00 PM 43.9071 87.4742 144° Southeast  Level Estimated
Fri 10:30:00 PM 43.9071 87.4742 144° Southeast  Level Estimated
Fri 10:31:00 PM 43.9071 87.4742 144° Southeast  Level Estimated
Fri 10:32:00 PM 43.9071 87.4742 144° Southeast  Level Estimated
Fri 10:33:00 PM 43.9071 87.4742 144° Southeast  Level Estimated
Fri 10:34:00 PM 43.9071 87.4742 144° Southeast  Level Estimated
Fri 10:35:00 PM 43.9071 87.4742 144° Southeast  Level Estimated
Fri 10:36:00 PM 43.9071 87.4742 144° Southeast  Level Estimated
Fri 10:37:00 PM 43.9071 87.4742 144° Southeast  Level Estimated
Fri 10:38:00 PM 43.9071 87.4742 144° Southeast  Level Estimated
Fri 10:39:00 PM 43.9071 87.4742 144° Southeast  Level Estimated
Fri 10:40:00 PM 43.9071 87.4742 144° Southeast  Level Estimated

Login

Don't have an account? Register now (free) for customized features, flight alerts, and more!